Time;durP1;ratioP1;P1;durP2;ratioP2;P2;SDS_P1;SDS_P2;PMS_P1;PMS_P2;Temp;Humidity;BMP_temperature;BMP_pressure;BME280_temperature;BME280_humidity;BME280_pressure;Samples;Min_cycle;Max_cycle;Signal;HPM_P1;HPM_P2
2023/05/18 04:22:38;;;;;;;2.03;1.77;;;;;;;6.21;100.00;100944.09;5089584;28;20171;-70
2023/05/18 04:25:04;;;;;;;2.85;1.67;;;;;;;6.24;100.00;100943.81;5105152;28;20043;-70
2023/05/18 04:27:29;;;;;;;3.60;1.80;;;;;;;6.28;99.66;100944.41;5087897;28;20032;-71
2023/05/18 04:29:55;;;;;;;2.20;1.50;;;;;;;6.36;99.25;100958.66;5088146;28;20086;-70
2023/05/18 04:32:20;;;;;;;3.58;1.35;;;;;;;6.43;98.83;100961.63;5088141;28;20028;-71
2023/05/18 04:34:48;;;;;;;2.47;1.55;;;;;;;6.50;98.30;100968.09;5088069;28;20408;-68
2023/05/18 04:37:16;;;;;;;2.22;1.45;;;;;;;6.56;98.07;100961.44;5087710;28;20035;-68
2023/05/18 04:39:42;;;;;;;3.40;1.60;;;;;;;6.62;97.84;100967.06;5088041;28;20463;-69
2023/05/18 04:42:13;;;;;;;3.35;1.42;;;;;;;6.64;97.58;100962.47;5087773;28;20090;-68
2023/05/18 04:44:39;;;;;;;2.55;1.50;;;;;;;6.73;97.37;100966.16;5087892;28;20089;-71
2023/05/18 04:47:07;;;;;;;7.18;2.05;;;;;;;6.75;97.10;100965.03;5087565;28;20028;-68
2023/05/18 04:49:33;;;;;;;1.67;1.48;;;;;;;6.82;96.91;100970.66;5087777;28;20390;-68
2023/05/18 04:51:59;;;;;;;2.88;1.70;;;;;;;6.86;95.97;100968.59;5089030;28;20035;-69
2023/05/18 04:54:29;;;;;;;2.53;2.00;;;;;;;6.90;95.79;100968.16;5088945;28;20088;-70
2023/05/18 04:56:56;;;;;;;3.13;1.73;;;;;;;6.97;95.49;100965.84;5087394;28;20055;-70
2023/05/18 04:59:25;;;;;;;2.85;1.63;;;;;;;7.05;94.48;100966.88;5087539;28;20089;-70
2023/05/18 05:01:52;;;;;;;3.15;2.00;;;;;;;7.11;93.89;100970.81;5087545;28;20032;-70
2023/05/18 05:04:20;;;;;;;2.75;1.60;;;;;;;7.18;93.61;100968.47;5087559;28;20040;-69
2023/05/18 05:06:46;;;;;;;1.40;1.30;;;;;;;7.25;92.96;100983.69;5087378;28;20792;-69
2023/05/18 05:09:13;;;;;;;2.08;1.27;;;;;;;7.33;91.85;100973.25;5087160;28;20113;-68
2023/05/18 05:11:40;;;;;;;1.60;1.50;;;;;;;7.41;91.70;100980.50;5087227;28;20040;-69
2023/05/18 05:14:06;;;;;;;1.35;1.25;;;;;;;7.53;89.83;100981.25;5087357;28;20059;-69
2023/05/18 05:16:32;;;;;;;2.40;1.60;;;;;;;7.69;89.46;100981.56;5088493;28;20389;-70
2023/05/18 05:18:58;;;;;;;2.92;1.65;;;;;;;7.83;88.49;100972.38;5086941;28;20096;-70
2023/05/18 05:21:24;;;;;;;2.63;1.25;;;;;;;7.87;87.66;100968.47;5087073;28;20097;-69
2023/05/18 05:23:50;;;;;;;6.93;1.60;;;;;;;7.98;86.81;100972.81;5087088;28;20028;-70
2023/05/18 05:26:17;;;;;;;4.60;1.50;;;;;;;8.01;87.07;100969.88;5086981;28;20512;-68
2023/05/18 05:28:44;;;;;;;2.85;1.73;;;;;;;8.04;86.70;100965.13;5086910;28;20041;-70
2023/05/18 05:31:10;;;;;;;1.70;1.40;;;;;;;8.15;84.72;100972.97;5086940;28;20047;-70
2023/05/18 05:33:36;;;;;;;2.55;1.80;;;;;;;8.18;84.58;100971.84;5076575;28;20405;-69
2023/05/18 05:36:04;;;;;;;2.63;1.40;;;;;;;8.23;84.67;100971.41;5069615;28;20090;-69
2023/05/18 05:38:29;;;;;;;3.33;1.48;;;;;;;8.29;83.56;100969.03;5072508;28;20036;-69
2023/05/18 05:40:56;;;;;;;2.25;1.90;;;;;;;8.38;83.61;100967.38;5073310;28;20519;-69
2023/05/18 05:43:21;;;;;;;2.45;1.30;;;;;;;8.43;84.23;100973.13;5073353;28;20060;-63
2023/05/18 05:45:47;;;;;;;2.85;1.25;;;;;;;8.48;83.75;100972.69;5073170;28;20496;-64
2023/05/18 05:48:12;;;;;;;1.77;1.38;;;;;;;8.58;86.61;100976.16;5072903;28;20123;-58
2023/05/18 05:50:38;;;;;;;3.50;1.45;;;;;;;8.62;84.18;100980.22;5074397;28;20070;-60
2023/05/18 05:53:04;;;;;;;2.03;1.25;;;;;;;8.64;83.81;100971.09;5090407;28;20035;-61
2023/05/18 05:55:39;;;;;;;2.40;1.67;;;;;;;8.69;82.65;100970.69;5063069;28;20053;-63
2023/05/18 05:58:06;;;;;;;3.67;1.30;;;;;;;8.79;82.90;100958.19;5052290;28;20033;-61
2023/05/18 06:00:32;;;;;;;3.33;1.60;;;;;;;8.88;81.47;100962.66;5052990;28;20021;-64
2023/05/18 06:03:01;;;;;;;2.38;1.45;;;;;;;8.86;81.31;100969.91;5052991;28;20524;-63
2023/05/18 06:05:33;;;;;;;1.98;1.60;;;;;;;9.00;81.42;100967.78;5063576;28;20043;-64
2023/05/18 06:08:00;;;;;;;3.28;1.13;;;;;;;9.08;77.90;100970.56;5072853;28;20047;-63
2023/05/18 06:10:25;;;;;;;2.47;1.40;;;;;;;9.11;79.01;100967.59;5072716;28;20028;-61
2023/05/18 06:12:51;;;;;;;1.83;1.50;;;;;;;9.18;78.60;100969.53;5072932;28;20171;-63
2023/05/18 06:15:18;;;;;;;1.50;1.40;;;;;;;9.25;77.25;100962.63;5072761;28;20139;-62
2023/05/18 06:17:44;;;;;;;3.60;2.05;;;;;;;9.35;78.07;100967.09;5072339;28;20046;-63
2023/05/18 06:20:11;;;;;;;2.15;1.55;;;;;;;9.44;76.16;100969.69;5072517;28;20037;-62
2023/05/18 06:22:37;;;;;;;2.17;1.70;;;;;;;9.55;74.90;100976.63;5072468;28;20087;-62
2023/05/18 06:25:35;;;;;;;4.05;1.35;;;;;;;9.67;73.49;100971.94;5061432;28;20570;-63
2023/05/18 06:28:07;;;;;;;3.55;1.50;;;;;;;9.66;73.21;100976.44;5072142;28;20082;-64
2023/05/18 06:30:42;;;;;;;2.88;1.48;;;;;;;9.74;73.11;100973.03;5072294;28;20464;-63
2023/05/18 06:33:27;;;;;;;2.22;1.42;;;;;;;9.81;72.85;100974.09;5073672;28;20186;-62
2023/05/18 06:35:53;;;;;;;3.90;2.03;;;;;;;9.89;72.84;100971.50;5072369;28;20476;-64
2023/05/18 06:38:18;;;;;;;2.85;1.27;;;;;;;10.02;70.97;100977.28;5073295;28;20025;-64
2023/05/18 06:40:44;;;;;;;4.25;2.05;;;;;;;10.04;71.33;100982.44;5072560;28;20512;-63
2023/05/18 06:43:10;;;;;;;1.73;1.25;;;;;;;10.02;70.13;100969.31;5072140;28;20029;-64
2023/05/18 06:45:46;;;;;;;4.18;1.42;;;;;;;10.10;70.17;100979.19;5071332;28;20031;-61
2023/05/18 06:48:17;;;;;;;1.58;1.25;;;;;;;10.28;68.04;100981.88;5071813;28;20044;-61
2023/05/18 06:50:43;;;;;;;2.28;1.20;;;;;;;10.35;68.43;100976.78;5071948;28;20040;-64
2023/05/18 06:53:10;;;;;;;1.95;1.00;;;;;;;10.31;69.41;100970.94;5072077;28;20044;-63
2023/05/18 06:55:36;;;;;;;4.27;1.40;;;;;;;10.44;68.32;100976.69;5072027;28;20047;-63
2023/05/18 06:58:03;;;;;;;4.97;1.60;;;;;;;10.50;68.17;100976.09;5071558;28;20194;-63
2023/05/18 07:00:28;;;;;;;2.60;1.23;;;;;;;10.63;67.85;100978.34;5071911;28;20163;-63
2023/05/18 07:02:55;;;;;;;1.65;1.13;;;;;;;10.69;67.31;100968.88;5071678;28;20139;-63
2023/05/18 07:05:20;;;;;;;3.08;1.40;;;;;;;10.74;67.01;100982.56;5071645;28;20128;-63
2023/05/18 07:07:46;;;;;;;2.58;1.40;;;;;;;10.90;65.90;100976.50;5072654;28;20042;-62
2023/05/18 07:10:11;;;;;;;3.13;1.42;;;;;;;10.93;66.25;100978.84;5072865;28;20029;-63
2023/05/18 07:12:37;;;;;;;2.67;1.40;;;;;;;11.02;66.44;100981.41;5072860;28;20071;-64
2023/05/18 07:15:03;;;;;;;2.78;1.63;;;;;;;11.12;65.56;100976.78;5072880;28;20127;-63
2023/05/18 07:17:28;;;;;;;1.65;1.40;;;;;;;11.13;64.34;100978.47;5072324;28;20086;-64
2023/05/18 07:19:54;;;;;;;2.50;1.08;;;;;;;11.20;65.02;100977.81;5072736;28;20048;-64
2023/05/18 07:22:19;;;;;;;3.15;1.30;;;;;;;11.40;64.61;100985.41;5072557;28;20036;-63
2023/05/18 07:24:44;;;;;;;3.15;1.30;;;;;;;11.44;63.91;100977.94;5072691;28;20044;-64
2023/05/18 07:27:10;;;;;;;4.70;1.63;;;;;;;11.57;62.83;100972.97;5072225;28;20484;-61
2023/05/18 07:29:36;;;;;;;3.63;1.60;;;;;;;11.53;63.14;100973.44;5072736;28;20060;-62
2023/05/18 07:32:01;;;;;;;1.63;1.10;;;;;;;11.68;62.25;100983.34;5072439;28;20054;-62
2023/05/18 07:34:27;;;;;;;2.25;1.27;;;;;;;11.75;61.99;100969.38;5072551;28;20405;-63
2023/05/18 07:36:52;;;;;;;2.20;1.45;;;;;;;11.78;60.78;100964.53;5072153;28;20036;-63
2023/05/18 07:39:18;;;;;;;2.30;1.60;;;;;;;11.76;63.34;100963.84;5072223;28;20040;-65
2023/05/18 07:41:46;;;;;;;3.38;1.38;;;;;;;11.86;62.44;100963.72;5071039;28;20044;-65
2023/05/18 07:44:11;;;;;;;3.78;1.63;;;;;;;11.69;62.07;100960.19;5072426;28;20029;-62
2023/05/18 07:46:37;;;;;;;2.33;1.20;;;;;;;11.91;62.77;100956.91;5072275;28;20505;-61
2023/05/18 07:49:02;;;;;;;1.83;1.30;;;;;;;12.02;62.21;100953.09;5071985;28;20068;-64
2023/05/18 07:51:28;;;;;;;3.00;1.65;;;;;;;12.10;61.98;100950.41;5072155;28;20045;-64
2023/05/18 07:53:54;;;;;;;2.13;1.80;;;;;;;12.21;62.94;100962.63;5072057;28;20041;-63
2023/05/18 07:56:21;;;;;;;1.92;1.33;;;;;;;12.41;62.48;100965.78;5071793;28;20032;-63
2023/05/18 07:58:46;;;;;;;5.25;1.48;;;;;;;12.43;60.29;100951.25;5071802;28;20041;-63
2023/05/18 08:01:12;;;;;;;3.22;1.30;;;;;;;12.68;59.36;100967.25;5072407;28;20047;-60
2023/05/18 08:03:37;;;;;;;6.25;1.50;;;;;;;12.45;60.08;100956.41;5072137;28;20046;-63
2023/05/18 08:06:02;;;;;;;4.22;1.65;;;;;;;12.72;59.55;100961.41;5070771;28;20048;-63
2023/05/18 08:08:28;;;;;;;2.20;1.25;;;;;;;12.75;59.13;100960.22;5070423;28;20032;-63
2023/05/18 08:10:53;;;;;;;1.30;1.20;;;;;;;12.84;59.26;100961.03;5071931;28;20474;-62
2023/05/18 08:13:19;;;;;;;1.85;1.40;;;;;;;12.98;59.11;100953.16;5071946;28;20033;-63
2023/05/18 08:15:44;;;;;;;4.03;1.55;;;;;;;13.02;58.80;100959.00;5071861;28;20084;-63
2023/05/18 08:18:10;;;;;;;4.88;1.70;;;;;;;13.00;58.39;100953.00;5071636;28;20119;-63
2023/05/18 08:20:35;;;;;;;3.55;1.98;;;;;;;13.21;58.52;100957.78;5071726;28;20032;-64
2023/05/18 08:23:01;;;;;;;2.05;1.50;;;;;;;13.07;58.89;100956.63;5071787;28;20086;-63
2023/05/18 08:25:26;;;;;;;3.25;1.60;;;;;;;13.07;58.26;100947.78;5071751;28;20040;-63
2023/05/18 08:27:51;;;;;;;2.80;1.35;;;;;;;13.08;59.79;100944.94;5071472;28;20384;-60
2023/05/18 08:30:20;;;;;;;2.17;1.10;;;;;;;13.33;60.19;100945.72;5071737;28;20040;-62
2023/05/18 08:32:46;;;;;;;5.28;2.17;;;;;;;13.53;57.93;100946.94;5071736;28;20043;-62
2023/05/18 08:35:11;;;;;;;4.13;1.67;;;;;;;13.74;59.14;100943.63;5071700;28;20120;-63
2023/05/18 08:37:38;;;;;;;4.88;2.72;;;;;;;13.84;57.09;100944.25;5069458;28;20115;-60
2023/05/18 08:40:06;;;;;;;2.90;1.50;;;;;;;13.70;56.80;100934.31;5071563;28;20118;-60
2023/05/18 08:42:39;;;;;;;5.72;2.35;;;;;;;13.98;57.82;100944.50;5070522;28;20112;-54
2023/05/18 08:45:13;;;;;;;6.57;3.20;;;;;;;14.33;57.13;100940.34;5071597;28;20389;-60
2023/05/18 08:47:39;;;;;;;4.47;2.20;;;;;;;14.53;57.49;100941.53;5071311;28;20040;-59
2023/05/18 08:50:05;;;;;;;3.63;1.92;;;;;;;14.49;56.57;100934.88;5071476;28;20051;-54
2023/05/18 08:52:35;;;;;;;7.63;2.60;;;;;;;14.79;56.97;100940.28;5071419;28;20082;-60
2023/05/18 08:55:06;;;;;;;4.43;1.75;;;;;;;14.83;54.71;100925.50;5071731;28;20039;-59
2023/05/18 08:57:35;;;;;;;3.35;1.92;;;;;;;14.72;53.76;100928.63;5071189;28;20032;-56
2023/05/18 09:00:03;;;;;;;4.32;1.75;;;;;;;14.87;54.17;100927.63;5071426;28;20074;-59
2023/05/18 09:02:29;;;;;;;2.22;1.60;;;;;;;14.82;55.39;100924.66;5070444;28;20446;-57
2023/05/18 09:04:55;;;;;;;5.03;2.42;;;;;;;15.03;54.56;100915.88;5071303;28;20040;-57
2023/05/18 09:07:22;;;;;;;2.10;1.60;;;;;;;15.48;53.71;100922.00;5071668;28;20401;-60
2023/05/18 09:09:47;;;;;;;4.80;1.90;;;;;;;15.45;51.63;100917.84;5075049;28;20101;-58
2023/05/18 09:12:15;;;;;;;3.45;2.30;;;;;;;15.68;51.80;100914.19;5073686;28;20553;-57
2023/05/18 09:14:42;;;;;;;3.35;2.25;;;;;;;15.83;51.79;100914.97;5075125;28;20048;-55
2023/05/18 09:17:08;;;;;;;6.75;2.78;;;;;;;15.98;51.87;100910.38;5074668;28;20032;-52
2023/05/18 09:19:34;;;;;;;4.30;2.20;;;;;;;15.97;51.65;100915.94;5076197;28;20040;-55
2023/05/18 09:22:00;;;;;;;4.53;1.90;;;;;;;16.13;51.84;100904.09;5077533;28;20074;-56
2023/05/18 09:24:25;;;;;;;5.68;2.83;;;;;;;16.25;50.55;100906.06;5088878;28;20040;-52
2023/05/18 09:26:52;;;;;;;3.42;2.35;;;;;;;16.63;50.33;100913.81;5084080;28;20038;-57
2023/05/18 09:29:19;;;;;;;4.28;2.20;;;;;;;16.35;49.75;100905.72;5081259;28;20041;-58
2023/05/18 09:31:46;;;;;;;4.50;1.58;;;;;;;16.86;50.34;100908.16;5091210;28;20035;-60
2023/05/18 09:34:12;;;;;;;3.92;1.85;;;;;;;17.14;50.47;100913.47;5078516;28;20032;-63
2023/05/18 09:36:38;;;;;;;7.00;2.78;;;;;;;17.31;49.01;100909.41;5085644;28;20040;-56
2023/05/18 09:39:08;;;;;;;4.43;2.00;;;;;;;17.16;45.98;100907.91;5085455;28;20093;-59
2023/05/18 09:41:37;;;;;;;4.63;2.08;;;;;;;17.48;46.10;100896.44;5078920;28;20112;-58
2023/05/18 09:44:07;;;;;;;6.28;1.88;;;;;;;17.45;45.44;100896.81;5091249;28;20090;-58
2023/05/18 09:46:36;;;;;;;6.40;1.85;;;;;;;17.72;45.83;100899.63;5081261;28;20047;-55
2023/05/18 09:49:03;;;;;;;4.28;2.05;;;;;;;17.35;45.68;100893.69;5083052;28;20489;-57
2023/05/18 09:51:28;;;;;;;4.37;1.93;;;;;;;17.63;44.53;100894.41;5089018;28;20068;-57
2023/05/18 09:53:55;;;;;;;3.80;2.15;;;;;;;17.88;45.13;100892.00;5077578;28;20329;-55
2023/05/18 09:56:22;;;;;;;2.67;1.98;;;;;;;18.18;45.50;100900.50;5088892;28;20036;-57
2023/05/18 09:58:48;;;;;;;4.53;2.40;;;;;;;18.06;43.40;100893.22;5082987;28;20088;-60
2023/05/18 10:01:14;;;;;;;3.55;2.42;;;;;;;18.33;44.57;100888.69;5081297;28;20117;-62
2023/05/18 10:03:40;;;;;;;3.85;1.98;;;;;;;18.44;42.99;100896.13;5090247;28;20040;-63
2023/05/18 10:06:12;;;;;;;4.85;2.10;;;;;;;17.22;44.73;100896.34;5080277;28;20408;-64
2023/05/18 10:08:37;;;;;;;3.38;1.95;;;;;;;17.30;44.84;100886.22;5073913;28;20041;-61
2023/05/18 10:11:04;;;;;;;6.07;2.65;;;;;;;17.76;43.74;100890.09;5073944;28;20041;-61
2023/05/18 10:13:30;;;;;;;5.55;2.15;;;;;;;18.02;43.09;100887.44;5074043;28;20036;-62
2023/05/18 10:15:58;;;;;;;2.97;1.85;;;;;;;18.58;42.04;100883.44;5073844;28;20059;-61
2023/05/18 10:18:25;;;;;;;3.42;1.75;;;;;;;18.98;42.46;100874.25;5073462;28;20036;-62
2023/05/18 10:20:56;;;;;;;3.83;1.90;;;;;;;19.47;41.17;100880.88;5072637;28;20032;-62
2023/05/18 10:23:24;;;;;;;4.80;1.98;;;;;;;19.98;40.58;100885.38;5073940;28;20123;-62
2023/05/18 10:25:50;;;;;;;4.18;2.28;;;;;;;19.37;40.13;100885.94;5073825;28;20110;-62
2023/05/18 10:28:43;;;;;;;7.20;2.60;;;;;;;19.24;41.20;100892.22;5073458;28;20667;-63
2023/05/18 10:31:08;;;;;;;4.70;2.00;;;;;;;19.73;40.63;100884.50;5073652;28;20055;-62
2023/05/18 10:33:35;;;;;;;4.07;1.95;;;;;;;19.88;38.57;100878.78;5072427;28;20416;-62
2023/05/18 10:36:03;;;;;;;10.02;1.95;;;;;;;20.10;39.00;100880.09;5073500;28;20567;-62
2023/05/18 10:38:29;;;;;;;3.85;1.88;;;;;;;19.49;39.49;100877.94;5073276;28;20067;-62
2023/05/18 10:40:57;;;;;;;4.10;2.20;;;;;;;18.75;40.43;100882.00;5073495;28;20043;-62
2023/05/18 10:43:26;;;;;;;4.90;2.28;;;;;;;18.72;40.08;100878.91;5073509;28;20643;-61
2023/05/18 10:45:57;;;;;;;5.07;2.63;;;;;;;19.06;40.04;100878.59;5073416;28;20481;-62
2023/05/18 10:48:23;;;;;;;4.80;1.83;;;;;;;19.34;39.63;100867.44;5073064;28;20051;-61
2023/05/18 10:50:51;;;;;;;4.63;2.22;;;;;;;19.18;38.54;100871.47;5073080;28;20059;-62
2023/05/18 10:53:18;;;;;;;3.25;2.00;;;;;;;18.94;39.80;100875.72;5073470;28;20028;-62
2023/05/18 10:55:45;;;;;;;5.65;2.67;;;;;;;19.67;39.06;100861.88;5073197;28;20040;-61
2023/05/18 10:58:14;;;;;;;5.22;2.60;;;;;;;19.51;38.42;100857.78;5072797;28;20040;-61
2023/05/18 11:00:43;;;;;;;3.35;1.90;;;;;;;19.96;38.11;100852.31;5073240;28;20151;-62
2023/05/18 11:03:13;;;;;;;5.47;2.28;;;;;;;19.27;38.40;100857.72;5073046;28;20052;-60
2023/05/18 11:05:40;;;;;;;7.07;2.38;;;;;;;19.18;39.14;100844.47;5073029;28;20045;-59
2023/05/18 11:08:05;;;;;;;5.82;2.92;;;;;;;19.86;37.48;100848.44;5072638;28;20041;-65
2023/05/18 11:10:40;;;;;;;4.70;2.70;;;;;;;19.90;38.22;100852.38;5071647;28;20072;-64
2023/05/18 11:13:06;;;;;;;7.32;2.45;;;;;;;20.63;37.22;100849.84;5072817;28;20401;-67
2023/05/18 11:15:50;;;;;;;3.67;2.10;;;;;;;20.10;37.12;100844.94;5072661;28;20036;-65
2023/05/18 11:18:15;;;;;;;4.57;2.08;;;;;;;20.41;37.32;100851.28;5072405;28;20040;-63
2023/05/18 11:20:44;;;;;;;7.35;2.13;;;;;;;20.53;35.79;100841.41;5072636;28;20608;-63
2023/05/18 11:23:09;;;;;;;3.97;2.25;;;;;;;20.69;36.10;100851.66;5072626;28;20089;-65
2023/05/18 11:25:36;;;;;;;3.60;1.95;;;;;;;21.16;35.51;100846.50;5072600;28;20032;-64
2023/05/18 11:28:04;;;;;;;3.30;2.22;;;;;;;20.56;36.93;100847.22;5072280;28;20503;-65
2023/05/18 11:30:33;;;;;;;4.10;1.90;;;;;;;19.96;37.86;100856.91;5071901;28;20028;-64
2023/05/18 11:33:16;;;;;;;5.47;2.17;;;;;;;20.25;36.75;100844.56;5072476;28;20051;-63
2023/05/18 11:36:06;;;;;;;4.72;1.50;;;;;;;20.77;36.77;100851.34;5072367;28;20036;-62
2023/05/18 11:38:52;;;;;;;3.78;2.00;;;;;;;21.40;34.89;100853.72;5068982;28;20090;-63
2023/05/18 11:41:35;;;;;;;5.38;2.40;;;;;;;20.91;35.22;100838.47;5046474;28;20714;-64
2023/05/18 11:44:19;;;;;;;4.03;1.95;;;;;;;21.52;35.73;100828.53;5062668;28;20362;-64
2023/05/18 11:47:09;;;;;;;2.92;1.77;;;;;;;21.84;35.28;100838.06;5062583;28;20093;-65
2023/05/18 11:49:44;;;;;;;4.05;1.83;;;;;;;22.14;34.41;100842.59;5062420;28;20041;-65
2023/05/18 11:52:15;;;;;;;6.00;1.95;;;;;;;22.50;33.21;100841.53;5061683;28;20060;-65
2023/05/18 11:54:51;;;;;;;4.00;2.25;;;;;;;22.05;33.11;100838.53;5060950;28;20032;-65
2023/05/18 11:57:23;;;;;;;4.27;2.20;;;;;;;21.61;33.84;100835.28;5060566;28;20123;-64
2023/05/18 11:59:54;;;;;;;5.60;2.10;;;;;;;21.67;35.17;100834.34;5061348;28;20048;-65
2023/05/18 12:02:44;;;;;;;5.40;2.17;;;;;;;22.00;35.07;100831.09;5060709;28;20159;-64
2023/05/18 12:05:10;;;;;;;4.18;2.00;;;;;;;22.54;33.56;100836.44;5054500;28;20052;-62
2023/05/18 12:07:36;;;;;;;5.97;1.98;;;;;;;23.12;33.21;100838.22;5061829;28;20397;-63
2023/05/18 12:10:05;;;;;;;5.65;2.67;;;;;;;22.45;32.70;100830.56;5059284;28;20032;-64
2023/05/18 12:12:32;;;;;;;4.50;2.25;;;;;;;21.98;33.62;100843.25;5061465;28;20511;-64
2023/05/18 12:15:09;;;;;;;6.43;1.80;;;;;;;22.70;32.47;100828.41;5060942;28;20119;-64
2023/05/18 12:17:42;;;;;;;8.03;2.23;;;;;;;23.06;32.79;100822.88;5061488;28;20051;-64
2023/05/18 12:20:10;;;;;;;5.53;2.15;;;;;;;23.61;31.41;100817.72;5066263;28;20286;-63
2023/05/18 12:22:37;;;;;;;2.95;1.95;;;;;;;24.07;30.55;100819.28;5051900;28;20405;-64
2023/05/18 12:25:03;;;;;;;5.63;2.08;;;;;;;23.58;31.78;100806.44;5052008;28;20440;-64
2023/05/18 12:27:28;;;;;;;3.63;1.65;;;;;;;23.62;29.65;100799.50;5051427;28;20044;-65
2023/05/18 12:29:54;;;;;;;4.93;1.95;;;;;;;23.39;30.91;100816.72;5051748;28;20041;-64
2023/05/18 12:32:19;;;;;;;4.90;2.20;;;;;;;23.61;30.73;100808.69;5051738;28;20037;-64
2023/05/18 12:34:45;;;;;;;4.55;2.08;;;;;;;23.51;30.19;100812.03;5051732;28;20043;-62
2023/05/18 12:37:10;;;;;;;7.15;2.50;;;;;;;23.58;30.13;100801.00;5033583;28;20060;-64
2023/05/18 12:39:36;;;;;;;7.47;2.25;;;;;;;23.93;30.07;100796.22;5051536;28;20456;-63
2023/05/18 12:42:09;;;;;;;6.78;2.15;;;;;;;23.74;30.12;100787.47;5053387;28;20083;-63
2023/05/18 12:44:38;;;;;;;4.55;1.92;;;;;;;23.53;31.42;100788.97;5075715;28;20055;-64
2023/05/18 12:47:04;;;;;;;8.52;2.20;;;;;;;23.92;29.75;100794.53;5074649;28;20040;-64
2023/05/18 12:49:35;;;;;;;5.28;1.92;;;;;;;23.78;30.41;100788.59;5075529;28;20036;-66
2023/05/18 12:52:07;;;;;;;4.88;2.13;;;;;;;24.29;29.21;100794.81;5075470;28;20043;-65
2023/05/18 12:54:33;;;;;;;6.55;2.03;;;;;;;24.33;28.98;100790.56;5075546;28;20382;-64
2023/05/18 12:56:59;;;;;;;5.75;2.10;;;;;;;24.04;30.07;100780.84;5075195;28;20039;-65
2023/05/18 12:59:27;;;;;;;6.38;2.20;;;;;;;24.43;29.09;100784.44;5075266;28;20054;-65
2023/05/18 13:01:54;;;;;;;5.93;1.95;;;;;;;24.38;28.59;100781.63;5072056;28;20420;-64
2023/05/18 13:04:19;;;;;;;6.78;1.98;;;;;;;23.02;30.22;100781.81;5075350;28;20029;-63
2023/05/18 13:06:45;;;;;;;2.70;1.92;;;;;;;22.78;30.73;100782.91;5075076;28;20453;-64
2023/05/18 13:09:12;;;;;;;4.95;2.17;;;;;;;22.72;31.78;100782.00;5074915;28;20043;-65
2023/05/18 13:11:38;;;;;;;5.23;1.83;;;;;;;23.38;30.61;100783.28;5075084;28;20086;-65
2023/05/18 13:14:09;;;;;;;8.35;2.70;;;;;;;22.26;30.97;100769.34;5075034;28;20043;-64
2023/05/18 13:16:40;;;;;;;5.13;1.55;;;;;;;22.85;31.30;100772.75;5075044;28;20048;-65
2023/05/18 13:19:08;;;;;;;6.65;1.90;;;;;;;22.43;31.95;100776.50;5074757;28;20039;-64
2023/05/18 13:21:34;;;;;;;4.95;1.90;;;;;;;22.66;31.70;100766.66;5074867;28;20064;-65
2023/05/18 13:24:00;;;;;;;9.43;2.35;;;;;;;22.16;32.76;100765.31;5075004;28;20056;-64
2023/05/18 13:26:26;;;;;;;3.10;1.88;;;;;;;22.38;31.62;100784.53;5074828;28;20033;-64
2023/05/18 13:28:54;;;;;;;5.63;2.13;;;;;;;21.56;33.00;100768.19;5074729;28;20043;-65
2023/05/18 13:31:21;;;;;;;5.35;2.00;;;;;;;21.85;33.38;100777.34;5074788;28;20514;-64
2023/05/18 13:33:47;;;;;;;5.32;1.90;;;;;;;21.36;32.34;100770.41;5070369;28;20040;-64
2023/05/18 13:36:13;;;;;;;3.95;1.83;;;;;;;20.89;34.18;100775.63;5063430;28;20028;-65
2023/05/18 13:38:38;;;;;;;4.13;1.75;;;;;;;20.34;34.60;100770.19;5062240;28;20082;-65
2023/05/18 13:41:04;;;;;;;6.20;2.28;;;;;;;20.90;34.65;100773.72;5064961;28;20029;-64
2023/05/18 13:43:31;;;;;;;3.95;2.10;;;;;;;20.83;33.53;100769.22;5063503;28;20112;-64
2023/05/18 13:45:56;;;;;;;4.17;1.93;;;;;;;20.30;35.07;100752.78;5058961;28;20512;-63
2023/05/18 13:48:23;;;;;;;5.78;2.35;;;;;;;20.79;34.19;100753.66;5061224;28;20040;-63
2023/05/18 13:50:49;;;;;;;10.48;2.10;;;;;;;20.60;34.34;100739.31;5063796;28;20102;-65
2023/05/18 13:53:14;;;;;;;5.63;1.80;;;;;;;20.59;34.12;100753.91;5062780;28;20497;-63
2023/05/18 13:55:40;;;;;;;3.40;1.60;;;;;;;19.96;35.83;100746.88;5063676;28;20040;-64
2023/05/18 13:58:05;;;;;;;8.15;2.28;;;;;;;20.30;35.05;100740.06;5062426;28;20035;-65
2023/05/18 14:00:31;;;;;;;6.47;2.38;;;;;;;20.29;34.70;100746.53;5059016;28;20086;-64
2023/05/18 14:02:57;;;;;;;3.17;1.90;;;;;;;20.19;35.15;100743.50;5054221;28;20086;-65
2023/05/18 14:05:23;;;;;;;5.00;1.80;;;;;;;19.91;35.04;100737.78;5054163;28;20433;-64
2023/05/18 14:07:51;;;;;;;1.80;1.50;;;;;;;19.99;34.33;100743.72;5053951;28;20466;-64
2023/05/18 14:10:16;;;;;;;6.10;2.05;;;;;;;20.05;34.51;100742.00;5054160;28;20095;-64
2023/05/18 14:12:42;;;;;;;4.97;1.90;;;;;;;19.92;34.75;100736.72;5053981;28;20430;-65
2023/05/18 14:15:09;;;;;;;3.55;2.08;;;;;;;20.08;35.42;100728.03;5053928;28;20379;-62
2023/05/18 14:17:34;;;;;;;4.95;1.77;;;;;;;19.74;34.62;100732.09;5053651;28;20394;-66
2023/05/18 14:20:00;;;;;;;6.70;2.00;;;;;;;20.01;34.90;100719.16;5053934;28;20036;-64
2023/05/18 14:22:26;;;;;;;4.07;1.60;;;;;;;20.22;34.38;100732.25;5053736;28;20025;-64
2023/05/18 14:24:52;;;;;;;4.97;2.33;;;;;;;20.23;34.41;100728.50;5053825;28;20044;-66
2023/05/18 14:27:19;;;;;;;2.33;1.77;;;;;;;19.80;35.04;100712.28;5053423;28;20028;-66
2023/05/18 14:29:45;;;;;;;2.75;2.00;;;;;;;19.78;35.95;100720.63;5052355;28;20095;-65
2023/05/18 14:32:10;;;;;;;4.32;1.90;;;;;;;19.72;35.10;100718.00;5053601;28;20072;-64
2023/05/18 14:34:36;;;;;;;5.30;1.98;;;;;;;19.76;35.48;100727.31;5053623;28;20079;-65
2023/05/18 14:37:01;;;;;;;3.75;1.80;;;;;;;19.46;35.58;100717.13;5052082;28;20398;-64
2023/05/18 14:39:26;;;;;;;9.65;1.83;;;;;;;19.49;35.21;100713.97;5053862;28;20041;-65
2023/05/18 14:41:52;;;;;;;3.50;1.60;;;;;;;19.59;35.97;100712.72;5053376;28;20108;-66
2023/05/18 14:44:17;;;;;;;4.72;2.20;;;;;;;19.64;35.86;100711.00;5053304;28;20033;-65
2023/05/18 14:46:43;;;;;;;6.72;1.73;;;;;;;19.63;35.21;100701.25;5053146;28;20045;-67
2023/05/18 14:49:08;;;;;;;5.03;2.42;;;;;;;19.27;36.25;100701.91;5053067;28;20041;-64
2023/05/18 14:51:34;;;;;;;5.75;1.90;;;;;;;19.47;36.27;100704.44;5053228;28;20060;-65
2023/05/18 14:53:59;;;;;;;6.55;2.60;;;;;;;19.38;36.59;100697.69;5053266;28;20043;-64
2023/05/18 14:56:25;;;;;;;5.93;2.17;;;;;;;19.40;36.25;100703.69;5053069;28;20052;-65
2023/05/18 14:58:51;;;;;;;6.00;1.92;;;;;;;19.29;36.17;100688.19;5052857;28;20068;-66
2023/05/18 15:01:16;;;;;;;6.65;2.30;;;;;;;19.17;36.47;100707.81;5053204;28;20083;-65
2023/05/18 15:03:42;;;;;;;3.92;1.95;;;;;;;19.10;35.84;100703.47;5053141;28;20041;-64
2023/05/18 15:06:08;;;;;;;2.53;1.75;;;;;;;19.07;36.92;100695.81;5052112;28;20074;-65
2023/05/18 15:08:33;;;;;;;2.72;1.83;;;;;;;19.19;37.18;100699.47;5052706;28;20025;-65
2023/05/18 15:10:59;;;;;;;4.53;2.00;;;;;;;19.23;36.69;100697.97;5052759;28;20387;-64
2023/05/18 15:13:24;;;;;;;3.75;1.98;;;;;;;19.39;36.31;100694.75;5051650;28;20448;-64
2023/05/18 15:15:50;;;;;;;3.83;1.77;;;;;;;19.49;36.11;100688.84;5052715;28;20127;-66
2023/05/18 15:18:15;;;;;;;5.80;2.92;;;;;;;19.43;35.79;100697.81;5052570;28;20065;-65
2023/05/18 15:20:42;;;;;;;6.20;2.45;;;;;;;19.31;35.61;100691.50;5052643;28;20033;-64
2023/05/18 15:23:08;;;;;;;5.07;1.73;;;;;;;19.38;36.25;100689.59;5052858;28;20033;-64
2023/05/18 15:25:35;;;;;;;4.05;2.10;;;;;;;19.33;36.91;100679.44;5052978;28;20037;-65
2023/05/18 15:28:00;;;;;;;2.10;1.52;;;;;;;19.29;36.49;100683.59;5052453;28;20041;-65
2023/05/18 15:30:28;;;;;;;4.72;2.78;;;;;;;19.11;36.36;100680.84;5052569;28;20037;-65
2023/05/18 15:32:54;;;;;;;5.47;2.20;;;;;;;19.07;36.49;100674.22;5052618;28;20029;-65
2023/05/18 15:35:20;;;;;;;5.97;2.13;;;;;;;19.07;36.64;100675.06;5052392;28;20041;-65
2023/05/18 15:37:45;;;;;;;7.70;2.65;;;;;;;19.16;36.31;100681.81;5052209;28;20043;-66
2023/05/18 15:40:11;;;;;;;5.15;2.22;;;;;;;18.95;36.15;100679.50;5052335;28;20494;-65
2023/05/18 15:42:36;;;;;;;6.75;2.15;;;;;;;18.94;36.36;100686.78;5052345;28;20032;-66
2023/05/18 15:45:02;;;;;;;7.28;2.50;;;;;;;18.95;35.82;100685.72;5051258;28;20037;-66
2023/05/18 15:47:27;;;;;;;6.68;1.90;;;;;;;18.91;35.62;100683.69;5051991;28;20505;-65
2023/05/18 15:49:52;;;;;;;4.95;2.25;;;;;;;18.73;36.81;100683.59;5051007;28;20124;-65